createdAt,value
2022-12-31T00:01:14.932Z,40.60
2022-12-31T00:03:41.879Z,38.20
2022-12-31T00:06:25.815Z,41.50
2022-12-31T00:08:53.446Z,44.50
2022-12-31T00:11:20.586Z,47.70
2022-12-31T00:13:48.427Z,44.20
2022-12-31T00:16:26.715Z,49.00
2022-12-31T00:18:55.462Z,52.10
2022-12-31T00:21:22.369Z,45.20
2022-12-31T00:23:49.138Z,43.90
2022-12-31T00:26:18.197Z,40.70
2022-12-31T00:28:45.296Z,48.70
2022-12-31T00:31:19.898Z,52.10
2022-12-31T00:33:46.643Z,52.50
2022-12-31T00:36:15.517Z,44.70
2022-12-31T00:38:43.781Z,39.70
2022-12-31T00:41:10.717Z,38.00
2022-12-31T00:43:37.634Z,39.20
2022-12-31T00:46:04.578Z,38.10
2022-12-31T00:48:31.456Z,38.00
2022-12-31T00:50:58.233Z,38.00
2022-12-31T00:53:25.061Z,37.80
2022-12-31T00:55:51.797Z,35.80
2022-12-31T00:58:18.449Z,37.40
2022-12-31T01:00:45.063Z,37.50
2022-12-31T01:03:11.775Z,38.70
2022-12-31T01:05:38.536Z,42.70
2022-12-31T01:08:05.655Z,43.10
2022-12-31T01:10:51.074Z,44.40
2022-12-31T01:13:17.708Z,50.70
2022-12-31T01:15:44.522Z,41.60
2022-12-31T01:18:11.294Z,42.40
2022-12-31T01:20:39.447Z,42.10
2022-12-31T01:23:06.479Z,41.50
2022-12-31T01:25:37.664Z,44.20
2022-12-31T01:28:05.456Z,43.30
2022-12-31T01:30:32.239Z,41.20
2022-12-31T01:32:58.907Z,37.80
2022-12-31T01:35:25.880Z,39.70
2022-12-31T01:37:52.587Z,42.00
2022-12-31T01:40:19.222Z,44.00
2022-12-31T01:42:46.001Z,42.20
2022-12-31T01:45:13.539Z,42.30
2022-12-31T01:47:44.254Z,39.30
2022-12-31T01:50:29.263Z,32.60
2022-12-31T01:53:03.562Z,29.80
2022-12-31T01:55:35.548Z,37.80
2022-12-31T01:58:11.713Z,41.80
2022-12-31T02:00:38.540Z,45.10
2022-12-31T02:03:05.606Z,46.90
2022-12-31T02:05:54.034Z,54.00
2022-12-31T02:08:21.019Z,52.60
2022-12-31T02:10:47.656Z,47.10
2022-12-31T02:13:14.459Z,45.20
2022-12-31T02:16:01.297Z,43.10
2022-12-31T02:18:43.782Z,44.20
2022-12-31T02:21:32.524Z,53.30
2022-12-31T02:24:17.513Z,49.60
2022-12-31T02:27:02.445Z,49.70
2022-12-31T02:29:48.021Z,49.50
2022-12-31T02:32:21.902Z,39.80
2022-12-31T02:37:17.832Z,37.70
2022-12-31T02:39:44.517Z,36.70
2022-12-31T02:42:11.629Z,40.80
2022-12-31T02:44:41.140Z,41.70
2022-12-31T02:47:07.917Z,38.80
2022-12-31T02:49:43.607Z,38.90
2022-12-31T02:52:18.432Z,34.50
2022-12-31T02:54:51.582Z,35.90
2022-12-31T02:57:50.853Z,38.20
2022-12-31T03:00:38.090Z,35.10
2022-12-31T03:03:04.853Z,33.50
2022-12-31T03:05:34.798Z,29.70
2022-12-31T03:08:01.429Z,29.20
2022-12-31T03:10:28.152Z,26.90
2022-12-31T03:12:55.126Z,32.40
2022-12-31T03:15:22.869Z,32.70
2022-12-31T03:17:53.950Z,31.30
2022-12-31T03:20:40.345Z,33.30
2022-12-31T03:23:09.386Z,32.50
2022-12-31T03:25:36.134Z,29.10
2022-12-31T03:28:05.019Z,32.50
2022-12-31T03:30:32.087Z,32.30
2022-12-31T03:32:59.222Z,32.60
2022-12-31T03:35:26.912Z,31.90
2022-12-31T03:37:53.963Z,35.10
2022-12-31T03:40:21.887Z,34.30
2022-12-31T03:42:48.613Z,34.60
2022-12-31T03:45:15.680Z,33.40
2022-12-31T03:47:42.523Z,32.50
2022-12-31T03:50:09.887Z,36.00
2022-12-31T03:52:37.179Z,33.50
2022-12-31T03:55:04.205Z,34.50
2022-12-31T03:57:31.071Z,33.10
2022-12-31T03:59:57.757Z,32.10
2022-12-31T04:02:28.801Z,32.70
2022-12-31T04:04:56.259Z,29.70
2022-12-31T04:07:23.083Z,30.20
2022-12-31T04:09:49.759Z,32.20
2022-12-31T04:12:17.100Z,30.70
2022-12-31T04:14:43.827Z,34.50
2022-12-31T04:17:10.497Z,34.80
2022-12-31T04:19:37.729Z,36.20
2022-12-31T04:22:05.008Z,32.70
2022-12-31T04:24:31.732Z,33.90
2022-12-31T04:27:03.601Z,31.50
2022-12-31T04:29:34.404Z,30.80
2022-12-31T04:32:01.168Z,33.30
2022-12-31T04:34:27.913Z,31.30
2022-12-31T04:36:54.702Z,30.20
2022-12-31T04:39:21.374Z,32.00
2022-12-31T04:43:14.555Z,30.00
2022-12-31T04:45:41.246Z,30.60
2022-12-31T04:48:07.978Z,31.00
2022-12-31T04:50:34.639Z,29.90
2022-12-31T04:53:01.277Z,41.40
2022-12-31T04:55:28.048Z,36.70
2022-12-31T04:57:54.685Z,35.90
2022-12-31T05:00:21.424Z,37.30
2022-12-31T05:02:48.192Z,34.80
2022-12-31T05:05:14.954Z,34.50
2022-12-31T05:07:41.741Z,34.20
2022-12-31T05:10:08.451Z,37.10
2022-12-31T05:12:35.118Z,38.60
2022-12-31T05:15:01.874Z,33.80
2022-12-31T05:17:28.603Z,32.10
2022-12-31T05:19:55.347Z,33.80
2022-12-31T05:22:31.438Z,40.40
2022-12-31T05:24:58.452Z,41.30
2022-12-31T05:27:25.205Z,40.80
2022-12-31T05:29:51.848Z,35.40
2022-12-31T05:32:18.484Z,37.00
2022-12-31T05:34:45.168Z,36.90
2022-12-31T05:37:12.169Z,38.30
2022-12-31T05:39:38.794Z,35.80
2022-12-31T05:42:05.472Z,67.20
2022-12-31T05:44:32.172Z,64.40
2022-12-31T05:46:58.817Z,56.20
2022-12-31T05:49:25.578Z,58.20
2022-12-31T05:51:52.240Z,50.50
2022-12-31T05:54:19.062Z,51.00
2022-12-31T05:56:45.795Z,47.10
2022-12-31T05:59:12.537Z,47.00
2022-12-31T06:01:39.282Z,41.00
2022-12-31T06:04:06.149Z,44.50
2022-12-31T06:06:32.842Z,38.20
2022-12-31T06:08:59.499Z,36.80
2022-12-31T06:11:26.123Z,35.90
2022-12-31T06:13:52.802Z,38.30
2022-12-31T06:16:19.544Z,35.10
2022-12-31T06:18:50.790Z,35.10
2022-12-31T06:21:18.102Z,34.80
2022-12-31T06:23:44.754Z,35.90
2022-12-31T06:26:11.489Z,34.10
2022-12-31T06:28:38.210Z,34.80
2022-12-31T06:31:06.630Z,34.60
2022-12-31T06:33:33.522Z,38.90
2022-12-31T06:36:01.978Z,40.20
2022-12-31T06:38:29.796Z,42.20
2022-12-31T06:40:56.584Z,41.70
2022-12-31T06:43:23.381Z,41.90
2022-12-31T06:45:50.049Z,38.00
2022-12-31T06:48:16.855Z,42.90
2022-12-31T06:50:43.518Z,43.70
2022-12-31T06:53:11.739Z,42.50
2022-12-31T06:55:38.872Z,51.00
2022-12-31T06:58:05.683Z,54.30
2022-12-31T07:00:32.957Z,53.30
2022-12-31T07:03:02.795Z,56.90
2022-12-31T07:05:52.730Z,59.30
2022-12-31T07:08:46.369Z,73.30
2022-12-31T07:11:35.312Z,70.10
2022-12-31T07:14:27.307Z,66.10
2022-12-31T07:17:09.324Z,46.40
2022-12-31T07:19:58.139Z,47.90
2022-12-31T07:22:25.094Z,44.20
2022-12-31T07:24:52.092Z,44.00
2022-12-31T07:27:34.334Z,39.70
2022-12-31T07:30:04.204Z,38.40
2022-12-31T07:32:49.509Z,37.50
2022-12-31T07:35:51.322Z,38.40
2022-12-31T07:38:27.225Z,50.50
2022-12-31T07:41:23.805Z,55.90
2022-12-31T07:44:01.807Z,59.30
2022-12-31T07:46:40.839Z,66.20
2022-12-31T07:49:12.339Z,57.20
2022-12-31T07:51:39.706Z,50.40
2022-12-31T07:54:11.856Z,44.90
2022-12-31T07:56:40.680Z,37.60
2022-12-31T07:59:26.604Z,36.90
2022-12-31T08:02:04.788Z,39.80
2022-12-31T08:04:37.803Z,34.50
2022-12-31T08:07:32.728Z,33.70
2022-12-31T08:10:23.026Z,33.90
2022-12-31T08:12:50.253Z,28.80
2022-12-31T08:15:18.233Z,27.70
2022-12-31T08:17:45.193Z,28.60
2022-12-31T08:20:16.733Z,28.30
2022-12-31T08:23:05.261Z,30.20
2022-12-31T08:25:40.588Z,30.70
2022-12-31T08:28:19.823Z,30.20
2022-12-31T08:31:02.151Z,29.30
2022-12-31T08:34:10.056Z,32.80
2022-12-31T08:36:48.956Z,32.60
2022-12-31T08:39:41.965Z,31.70
2022-12-31T08:42:37.035Z,38.10
2022-12-31T08:45:37.836Z,38.90
2022-12-31T08:48:36.580Z,37.80
2022-12-31T08:51:03.437Z,39.30
2022-12-31T08:53:30.445Z,41.70
2022-12-31T08:56:02.791Z,40.50
2022-12-31T08:58:48.275Z,41.70
2022-12-31T09:01:15.061Z,44.80
2022-12-31T09:03:53.248Z,45.00
2022-12-31T09:06:25.995Z,46.90
2022-12-31T09:09:02.573Z,43.80
2022-12-31T09:11:53.022Z,42.50
2022-12-31T09:14:57.759Z,40.90
2022-12-31T09:19:58.488Z,41.20
2022-12-31T09:22:25.433Z,43.60
2022-12-31T09:24:52.311Z,47.70
2022-12-31T09:27:27.732Z,45.90
2022-12-31T09:29:57.654Z,41.30
2022-12-31T09:32:41.843Z,43.80
2022-12-31T09:35:24.087Z,38.20
2022-12-31T09:37:53.255Z,40.00
2022-12-31T09:40:29.081Z,37.90
2022-12-31T09:43:02.100Z,37.80
2022-12-31T09:46:07.628Z,43.70
2022-12-31T09:49:06.968Z,30.30
2022-12-31T09:51:38.248Z,28.90
2022-12-31T09:54:27.024Z,27.90
2022-12-31T09:57:20.122Z,28.70
2022-12-31T10:00:03.804Z,25.50
2022-12-31T10:02:48.346Z,28.80
2022-12-31T10:05:33.942Z,29.00
2022-12-31T10:08:06.759Z,25.10
2022-12-31T10:10:39.847Z,22.60
2022-12-31T10:13:28.619Z,23.60
2022-12-31T10:16:20.144Z,24.30
2022-12-31T10:19:17.722Z,21.00
2022-12-31T10:22:03.160Z,21.50
2022-12-31T10:24:51.733Z,19.70
2022-12-31T15:16:54.899Z,45.30
2022-12-31T15:19:40.290Z,38.50
2022-12-31T15:22:14.476Z,35.20
2022-12-31T15:24:45.636Z,35.00
2022-12-31T15:27:34.390Z,40.30
2022-12-31T15:30:01.167Z,36.70
2022-12-31T15:32:34.692Z,39.80
2022-12-31T15:35:20.988Z,36.90
2022-12-31T15:38:10.380Z,36.50
2022-12-31T15:40:44.354Z,34.20
2022-12-31T15:43:20.112Z,34.10
2022-12-31T15:45:48.286Z,31.90
2022-12-31T15:48:22.198Z,37.50
2022-12-31T15:50:49.990Z,36.00
2022-12-31T15:53:40.076Z,33.50
2022-12-31T15:56:08.117Z,31.00
2022-12-31T15:58:36.056Z,30.80
2022-12-31T16:01:19.074Z,31.00
2022-12-31T16:03:48.234Z,32.50
2022-12-31T16:06:15.713Z,30.30
2022-12-31T16:08:47.983Z,33.40
2022-12-31T16:11:14.809Z,31.00
2022-12-31T16:13:44.310Z,31.00
2022-12-31T16:16:31.629Z,31.60
2022-12-31T16:19:00.173Z,31.90
2022-12-31T16:21:33.630Z,33.00
2022-12-31T16:24:30.612Z,32.30
2022-12-31T16:27:02.327Z,31.90
2022-12-31T16:29:30.842Z,31.70
2022-12-31T16:31:57.508Z,32.50
2022-12-31T16:34:26.657Z,29.90
2022-12-31T16:37:05.333Z,32.50
2022-12-31T16:39:39.156Z,29.90
2022-12-31T16:44:43.645Z,30.80
2022-12-31T16:47:18.147Z,28.30
2022-12-31T16:49:45.582Z,28.40
2022-12-31T16:52:32.422Z,30.00
2022-12-31T16:54:59.184Z,27.50
2022-12-31T16:57:27.345Z,27.70
2022-12-31T17:00:02.454Z,28.40
2022-12-31T17:02:39.952Z,28.90
2022-12-31T17:05:21.661Z,27.90
2022-12-31T17:07:48.422Z,29.90
2022-12-31T17:10:23.375Z,29.60
2022-12-31T17:13:27.642Z,27.00
2022-12-31T17:15:44.804Z,27.50
2022-12-31T17:18:17.537Z,24.10
2022-12-31T17:20:44.232Z,23.60
2022-12-31T17:23:11.786Z,23.90
2022-12-31T17:25:38.596Z,22.40
2022-12-31T17:28:07.229Z,21.90
2022-12-31T17:30:34.742Z,23.40
2022-12-31T17:33:05.404Z,22.30
2022-12-31T17:35:36.876Z,24.00
2022-12-31T17:38:21.312Z,25.10
2022-12-31T17:41:08.237Z,21.80
2022-12-31T17:43:38.419Z,22.60
2022-12-31T17:46:16.094Z,22.90
2022-12-31T17:48:44.068Z,25.90
2022-12-31T17:51:10.936Z,24.80
2022-12-31T17:53:38.197Z,23.40
2022-12-31T17:56:07.408Z,21.10
2022-12-31T17:58:51.408Z,22.90
2022-12-31T18:03:46.031Z,25.90
2022-12-31T18:06:16.479Z,23.00
2022-12-31T18:08:43.699Z,23.60
2022-12-31T18:11:14.514Z,24.30
2022-12-31T18:13:41.285Z,29.30
2022-12-31T18:16:08.152Z,31.20
2022-12-31T18:18:37.345Z,30.20
2022-12-31T18:21:05.425Z,23.10
2022-12-31T18:23:42.885Z,20.10
2022-12-31T18:26:13.055Z,21.60
2022-12-31T18:28:39.760Z,24.30
2022-12-31T18:31:06.532Z,23.30
2022-12-31T18:33:33.420Z,24.70
2022-12-31T18:36:09.218Z,25.50
2022-12-31T18:38:36.500Z,25.50
2022-12-31T18:41:03.725Z,23.60
2022-12-31T18:43:30.379Z,24.40
2022-12-31T18:45:57.176Z,22.20
2022-12-31T18:48:24.002Z,19.90
2022-12-31T18:50:50.710Z,20.20
2022-12-31T18:53:19.472Z,20.60
2022-12-31T18:55:53.674Z,19.80
2022-12-31T18:58:20.668Z,19.10
2022-12-31T19:00:48.122Z,18.70
2022-12-31T19:03:20.129Z,18.50
2022-12-31T19:05:49.863Z,17.90
2022-12-31T19:08:20.552Z,16.50
2022-12-31T19:10:47.959Z,17.60
2022-12-31T19:13:15.663Z,18.90
2022-12-31T19:15:44.376Z,20.70
2022-12-31T19:18:11.715Z,21.00
2022-12-31T19:20:39.069Z,18.50
2022-12-31T19:23:05.899Z,18.70
2022-12-31T19:25:34.354Z,19.20
2022-12-31T19:28:02.238Z,17.30
2022-12-31T19:30:31.040Z,17.10
2022-12-31T19:32:58.059Z,16.70
2022-12-31T19:35:25.021Z,19.10
2022-12-31T19:37:52.549Z,17.70
2022-12-31T19:40:27.339Z,18.10
2022-12-31T19:42:55.090Z,16.30
2022-12-31T19:45:26.410Z,15.10
2022-12-31T19:47:53.528Z,15.50
2022-12-31T19:50:22.256Z,17.00
2022-12-31T19:52:50.102Z,19.10
2022-12-31T19:55:19.410Z,17.00
2022-12-31T19:57:46.822Z,17.40
2022-12-31T20:00:15.046Z,18.70
2022-12-31T20:02:42.351Z,16.40
2022-12-31T20:05:09.992Z,15.90
2022-12-31T20:07:36.837Z,15.90
2022-12-31T20:10:04.934Z,15.20
2022-12-31T20:12:32.031Z,17.00
2022-12-31T20:14:58.707Z,16.10
2022-12-31T20:17:25.498Z,16.10
2022-12-31T20:19:52.236Z,16.30
2022-12-31T20:22:19.082Z,14.90
2022-12-31T20:24:45.832Z,16.30
2022-12-31T20:27:18.309Z,15.20
2022-12-31T20:29:45.518Z,15.00
2022-12-31T20:32:12.193Z,15.50
2022-12-31T20:34:38.916Z,13.60
2022-12-31T20:37:05.547Z,14.80
2022-12-31T20:39:32.238Z,13.60
2022-12-31T20:41:58.972Z,15.80
2022-12-31T20:44:25.663Z,16.90
2022-12-31T20:46:52.390Z,15.30
2022-12-31T20:49:37.088Z,15.00
2022-12-31T20:52:05.940Z,17.20
2022-12-31T20:54:32.774Z,17.90
2022-12-31T20:57:00.280Z,16.10
2022-12-31T20:59:27.770Z,18.20
2022-12-31T21:02:29.761Z,16.60
2022-12-31T21:04:41.395Z,18.30
2022-12-31T21:07:08.272Z,18.80
2022-12-31T21:09:35.014Z,15.30
2022-12-31T21:12:20.549Z,15.90
2022-12-31T21:14:47.244Z,14.80
2022-12-31T21:17:13.979Z,16.70
2022-12-31T21:19:40.808Z,16.10
2022-12-31T21:22:07.525Z,17.40
2022-12-31T21:24:34.357Z,17.00
2022-12-31T21:27:00.999Z,17.10
2022-12-31T21:29:32.642Z,17.70
2022-12-31T21:32:01.215Z,17.90
2022-12-31T21:34:27.905Z,16.70
2022-12-31T21:36:54.551Z,20.00
2022-12-31T21:39:21.384Z,18.60
2022-12-31T21:41:50.973Z,18.70
2022-12-31T21:44:20.891Z,21.70
2022-12-31T21:47:35.004Z,17.60
2022-12-31T21:50:03.204Z,18.80
2022-12-31T21:52:35.206Z,16.30
2022-12-31T21:55:21.678Z,15.40
2022-12-31T21:58:24.082Z,15.30
2022-12-31T22:00:54.879Z,17.60
2022-12-31T22:03:24.345Z,15.00
2022-12-31T22:05:52.072Z,16.70
2022-12-31T22:08:19.922Z,16.70
2022-12-31T22:10:52.088Z,16.70
2022-12-31T22:13:19.645Z,14.50
2022-12-31T22:15:47.166Z,15.20
2022-12-31T22:18:14.718Z,14.60
2022-12-31T22:20:41.510Z,15.50
2022-12-31T22:23:08.172Z,17.20
2022-12-31T22:25:35.509Z,17.40
2022-12-31T22:28:36.842Z,17.20
2022-12-31T22:30:49.713Z,17.80
2022-12-31T22:33:16.560Z,17.60
2022-12-31T22:35:43.194Z,16.80
2022-12-31T22:38:12.121Z,17.90
2022-12-31T22:40:39.409Z,16.80
2022-12-31T22:43:06.141Z,16.70
2022-12-31T22:45:32.899Z,17.30
2022-12-31T22:47:59.564Z,17.30
2022-12-31T22:50:26.208Z,16.80
2022-12-31T22:52:52.953Z,18.00
2022-12-31T22:55:19.592Z,16.00
2022-12-31T22:57:46.243Z,17.00
2022-12-31T23:00:13.795Z,15.90
2022-12-31T23:02:42.221Z,17.60
2022-12-31T23:05:14.921Z,16.50
2022-12-31T23:07:42.624Z,18.10
2022-12-31T23:10:28.660Z,18.70
2022-12-31T23:12:55.419Z,18.30
2022-12-31T23:15:40.743Z,19.60
2022-12-31T23:18:26.253Z,18.40
2022-12-31T23:21:12.038Z,15.80
2022-12-31T23:23:38.775Z,17.20
2022-12-31T23:26:07.053Z,17.50
2022-12-31T23:28:33.792Z,18.40
2022-12-31T23:31:05.997Z,18.40
2022-12-31T23:33:32.691Z,18.10
2022-12-31T23:36:06.172Z,19.60
2022-12-31T23:38:33.479Z,19.10
2022-12-31T23:41:00.659Z,20.80
2022-12-31T23:43:28.407Z,26.50
2022-12-31T23:45:55.260Z,28.80
2022-12-31T23:48:21.962Z,30.60
2022-12-31T23:50:53.569Z,37.90
2022-12-31T23:53:24.454Z,23.60
2022-12-31T23:55:51.906Z,23.40
2022-12-31T23:58:18.550Z,21.10
